sensor_id;sensor_type;location;lat;lon;timestamp;P1;durP1;ratioP1;P2;durP2;ratioP2
59788;SDS011;47353;51.614;5.530;2023-07-31T05:23:33;16.05;;;6.30;;
59788;SDS011;47353;51.614;5.530;2023-07-31T05:26:03;16.95;;;7.25;;
59788;SDS011;47353;51.614;5.530;2023-07-31T05:28:29;18.52;;;7.07;;
59788;SDS011;47353;51.614;5.530;2023-07-31T05:30:58;20.20;;;7.13;;
59788;SDS011;47353;51.614;5.530;2023-07-31T05:33:27;17.85;;;6.88;;
59788;SDS011;47353;51.614;5.530;2023-07-31T05:35:53;14.23;;;7.07;;
59788;SDS011;47353;51.614;5.530;2023-07-31T05:38:18;14.90;;;6.40;;
59788;SDS011;47353;51.614;5.530;2023-07-31T05:40:44;15.35;;;6.90;;
59788;SDS011;47353;51.614;5.530;2023-07-31T05:43:09;17.67;;;6.45;;
59788;SDS011;47353;51.614;5.530;2023-07-31T05:45:35;15.18;;;6.40;;
59788;SDS011;47353;51.614;5.530;2023-07-31T05:48:00;16.13;;;6.13;;
59788;SDS011;47353;51.614;5.530;2023-07-31T05:50:26;19.17;;;6.63;;
59788;SDS011;47353;51.614;5.530;2023-07-31T05:52:51;11.98;;;6.25;;
59788;SDS011;47353;51.614;5.530;2023-07-31T05:55:17;13.35;;;6.28;;
59788;SDS011;47353;51.614;5.530;2023-07-31T05:57:42;12.50;;;5.75;;
59788;SDS011;47353;51.614;5.530;2023-07-31T06:00:08;11.35;;;5.30;;
59788;SDS011;47353;51.614;5.530;2023-07-31T06:02:34;15.30;;;5.68;;
59788;SDS011;47353;51.614;5.530;2023-07-31T06:05:01;11.75;;;5.28;;
59788;SDS011;47353;51.614;5.530;2023-07-31T06:07:29;10.23;;;4.97;;
59788;SDS011;47353;51.614;5.530;2023-07-31T06:09:54;11.30;;;5.40;;
59788;SDS011;47353;51.614;5.530;2023-07-31T06:12:20;9.75;;;4.78;;
59788;SDS011;47353;51.614;5.530;2023-07-31T06:14:46;7.20;;;4.35;;
59788;SDS011;47353;51.614;5.530;2023-07-31T06:17:11;8.48;;;4.35;;
59788;SDS011;47353;51.614;5.530;2023-07-31T06:19:36;8.25;;;4.50;;
59788;SDS011;47353;51.614;5.530;2023-07-31T06:22:02;5.82;;;3.53;;
59788;SDS011;47353;51.614;5.530;2023-07-31T06:24:28;7.90;;;4.20;;
59788;SDS011;47353;51.614;5.530;2023-07-31T06:26:53;10.00;;;4.25;;
59788;SDS011;47353;51.614;5.530;2023-07-31T06:29:19;8.07;;;4.40;;
59788;SDS011;47353;51.614;5.530;2023-07-31T06:31:44;9.50;;;3.97;;
59788;SDS011;47353;51.614;5.530;2023-07-31T06:34:09;7.30;;;4.15;;
59788;SDS011;47353;51.614;5.530;2023-07-31T06:36:35;6.28;;;3.83;;
59788;SDS011;47353;51.614;5.530;2023-07-31T06:39:00;6.93;;;3.83;;
59788;SDS011;47353;51.614;5.530;2023-07-31T06:41:26;6.03;;;3.90;;
59788;SDS011;47353;51.614;5.530;2023-07-31T06:43:51;8.60;;;4.25;;
59788;SDS011;47353;51.614;5.530;2023-07-31T06:46:17;7.00;;;4.10;;
59788;SDS011;47353;51.614;5.530;2023-07-31T06:48:42;5.45;;;3.97;;
59788;SDS011;47353;51.614;5.530;2023-07-31T06:51:08;6.60;;;4.45;;
59788;SDS011;47353;51.614;5.530;2023-07-31T06:53:33;5.95;;;4.30;;
59788;SDS011;47353;51.614;5.530;2023-07-31T06:55:58;6.45;;;4.65;;
59788;SDS011;47353;51.614;5.530;2023-07-31T06:58:24;8.88;;;5.35;;
59788;SDS011;47353;51.614;5.530;2023-07-31T07:00:49;8.88;;;5.30;;
59788;SDS011;47353;51.614;5.530;2023-07-31T07:03:17;7.63;;;5.00;;
59788;SDS011;47353;51.614;5.530;2023-07-31T07:05:43;8.27;;;5.63;;
59788;SDS011;47353;51.614;5.530;2023-07-31T07:08:09;8.85;;;5.20;;
59788;SDS011;47353;51.614;5.530;2023-07-31T07:10:34;7.18;;;4.72;;
59788;SDS011;47353;51.614;5.530;2023-07-31T07:12:59;7.43;;;4.75;;
59788;SDS011;47353;51.614;5.530;2023-07-31T07:15:25;6.57;;;4.63;;
59788;SDS011;47353;51.614;5.530;2023-07-31T07:17:50;8.23;;;4.85;;
59788;SDS011;47353;51.614;5.530;2023-07-31T07:20:16;6.60;;;4.65;;
59788;SDS011;47353;51.614;5.530;2023-07-31T07:22:41;9.23;;;4.78;;
59788;SDS011;47353;51.614;5.530;2023-07-31T07:25:08;6.82;;;4.72;;
59788;SDS011;47353;51.614;5.530;2023-07-31T07:27:33;7.80;;;5.35;;
59788;SDS011;47353;51.614;5.530;2023-07-31T07:29:59;8.77;;;4.68;;
59788;SDS011;47353;51.614;5.530;2023-07-31T07:32:24;6.47;;;4.80;;
59788;SDS011;47353;51.614;5.530;2023-07-31T07:34:50;8.20;;;5.18;;
59788;SDS011;47353;51.614;5.530;2023-07-31T07:37:15;5.75;;;3.97;;
59788;SDS011;47353;51.614;5.530;2023-07-31T07:39:41;5.28;;;4.05;;
59788;SDS011;47353;51.614;5.530;2023-07-31T07:42:06;6.28;;;3.90;;
59788;SDS011;47353;51.614;5.530;2023-07-31T07:44:32;7.68;;;4.50;;
59788;SDS011;47353;51.614;5.530;2023-07-31T07:46:57;5.05;;;3.90;;
59788;SDS011;47353;51.614;5.530;2023-07-31T07:49:23;6.90;;;4.53;;
59788;SDS011;47353;51.614;5.530;2023-07-31T07:51:48;8.25;;;4.20;;
59788;SDS011;47353;51.614;5.530;2023-07-31T07:54:14;6.30;;;4.90;;
59788;SDS011;47353;51.614;5.530;2023-07-31T07:56:41;6.95;;;4.95;;
59788;SDS011;47353;51.614;5.530;2023-07-31T07:59:08;7.85;;;4.68;;
59788;SDS011;47353;51.614;5.530;2023-07-31T08:01:33;5.55;;;4.78;;
59788;SDS011;47353;51.614;5.530;2023-07-31T08:03:59;7.13;;;5.07;;
59788;SDS011;47353;51.614;5.530;2023-07-31T08:06:24;8.93;;;5.50;;
59788;SDS011;47353;51.614;5.530;2023-07-31T08:08:50;9.73;;;5.95;;
59788;SDS011;47353;51.614;5.530;2023-07-31T08:11:15;8.52;;;5.63;;
59788;SDS011;47353;51.614;5.530;2023-07-31T08:13:41;8.98;;;5.90;;
59788;SDS011;47353;51.614;5.530;2023-07-31T08:16:06;8.93;;;6.20;;
59788;SDS011;47353;51.614;5.530;2023-07-31T08:18:32;10.32;;;5.93;;
59788;SDS011;47353;51.614;5.530;2023-07-31T08:20:58;8.15;;;6.25;;
59788;SDS011;47353;51.614;5.530;2023-07-31T08:23:23;9.23;;;6.25;;
59788;SDS011;47353;51.614;5.530;2023-07-31T08:25:49;9.90;;;6.40;;
59788;SDS011;47353;51.614;5.530;2023-07-31T08:28:15;8.55;;;6.10;;
59788;SDS011;47353;51.614;5.530;2023-07-31T08:30:42;9.05;;;6.03;;
59788;SDS011;47353;51.614;5.530;2023-07-31T08:33:07;14.02;;;5.82;;
59788;SDS011;47353;51.614;5.530;2023-07-31T08:35:33;10.15;;;6.43;;
59788;SDS011;47353;51.614;5.530;2023-07-31T08:37:58;7.47;;;5.63;;
59788;SDS011;47353;51.614;5.530;2023-07-31T08:40:24;10.20;;;6.60;;
59788;SDS011;47353;51.614;5.530;2023-07-31T08:42:52;7.22;;;5.60;;
59788;SDS011;47353;51.614;5.530;2023-07-31T08:45:19;7.90;;;6.38;;
59788;SDS011;47353;51.614;5.530;2023-07-31T08:47:46;9.60;;;5.90;;
59788;SDS011;47353;51.614;5.530;2023-07-31T08:50:13;10.27;;;6.70;;
59788;SDS011;47353;51.614;5.530;2023-07-31T08:52:39;9.30;;;6.60;;
59788;SDS011;47353;51.614;5.530;2023-07-31T08:55:05;13.30;;;7.18;;
59788;SDS011;47353;51.614;5.530;2023-07-31T08:57:31;11.75;;;7.25;;
59788;SDS011;47353;51.614;5.530;2023-07-31T08:59:58;11.77;;;6.93;;
59788;SDS011;47353;51.614;5.530;2023-07-31T09:02:24;11.52;;;7.47;;
59788;SDS011;47353;51.614;5.530;2023-07-31T09:04:56;11.15;;;7.97;;
59788;SDS011;47353;51.614;5.530;2023-07-31T09:07:22;15.85;;;7.43;;
59788;SDS011;47353;51.614;5.530;2023-07-31T09:09:49;13.07;;;7.85;;
59788;SDS011;47353;51.614;5.530;2023-07-31T09:12:14;15.15;;;8.40;;
59788;SDS011;47353;51.614;5.530;2023-07-31T09:14:40;14.18;;;8.10;;
59788;SDS011;47353;51.614;5.530;2023-07-31T09:17:09;13.25;;;8.02;;
59788;SDS011;47353;51.614;5.530;2023-07-31T09:19:35;14.32;;;7.72;;
59788;SDS011;47353;51.614;5.530;2023-07-31T09:22:05;18.80;;;8.20;;
59788;SDS011;47353;51.614;5.530;2023-07-31T09:24:32;12.68;;;7.88;;
59788;SDS011;47353;51.614;5.530;2023-07-31T09:26:59;17.23;;;7.93;;
59788;SDS011;47353;51.614;5.530;2023-07-31T09:29:25;12.60;;;8.20;;
59788;SDS011;47353;51.614;5.530;2023-07-31T09:31:53;13.80;;;7.70;;
59788;SDS011;47353;51.614;5.530;2023-07-31T09:34:20;12.48;;;7.60;;
59788;SDS011;47353;51.614;5.530;2023-07-31T09:39:18;11.07;;;6.40;;
59788;SDS011;47353;51.614;5.530;2023-07-31T09:41:53;11.82;;;6.65;;
59788;SDS011;47353;51.614;5.530;2023-07-31T09:44:20;12.98;;;7.03;;
59788;SDS011;47353;51.614;5.530;2023-07-31T09:46:46;9.48;;;6.70;;
59788;SDS011;47353;51.614;5.530;2023-07-31T09:49:12;12.40;;;6.57;;
59788;SDS011;47353;51.614;5.530;2023-07-31T09:51:40;9.25;;;6.68;;
59788;SDS011;47353;51.614;5.530;2023-07-31T09:54:10;8.15;;;6.35;;
59788;SDS011;47353;51.614;5.530;2023-07-31T09:56:41;12.35;;;6.78;;
59788;SDS011;47353;51.614;5.530;2023-07-31T09:59:15;9.18;;;6.35;;
59788;SDS011;47353;51.614;5.530;2023-07-31T10:01:42;10.48;;;6.28;;
59788;SDS011;47353;51.614;5.530;2023-07-31T10:04:09;10.32;;;6.45;;
59788;SDS011;47353;51.614;5.530;2023-07-31T10:06:35;11.73;;;6.03;;
59788;SDS011;47353;51.614;5.530;2023-07-31T10:09:03;11.45;;;6.13;;
59788;SDS011;47353;51.614;5.530;2023-07-31T10:11:32;9.13;;;6.10;;
59788;SDS011;47353;51.614;5.530;2023-07-31T10:14:03;8.63;;;5.88;;
59788;SDS011;47353;51.614;5.530;2023-07-31T10:16:29;11.57;;;6.22;;
59788;SDS011;47353;51.614;5.530;2023-07-31T10:18:56;7.75;;;5.00;;
59788;SDS011;47353;51.614;5.530;2023-07-31T10:21:22;11.45;;;5.50;;
59788;SDS011;47353;51.614;5.530;2023-07-31T10:23:47;9.45;;;5.30;;
59788;SDS011;47353;51.614;5.530;2023-07-31T10:26:16;8.02;;;5.38;;
59788;SDS011;47353;51.614;5.530;2023-07-31T10:28:44;8.18;;;5.38;;
59788;SDS011;47353;51.614;5.530;2023-07-31T10:31:11;10.65;;;5.60;;
59788;SDS011;47353;51.614;5.530;2023-07-31T10:33:38;8.50;;;5.07;;
59788;SDS011;47353;51.614;5.530;2023-07-31T10:36:17;10.02;;;5.20;;
59788;SDS011;47353;51.614;5.530;2023-07-31T10:38:44;9.50;;;5.32;;
59788;SDS011;47353;51.614;5.530;2023-07-31T10:41:10;11.07;;;4.13;;
59788;SDS011;47353;51.614;5.530;2023-07-31T10:43:36;9.30;;;5.00;;
59788;SDS011;47353;51.614;5.530;2023-07-31T10:46:06;9.30;;;4.93;;
59788;SDS011;47353;51.614;5.530;2023-07-31T10:48:33;8.93;;;4.38;;
59788;SDS011;47353;51.614;5.530;2023-07-31T10:51:01;5.68;;;3.97;;
59788;SDS011;47353;51.614;5.530;2023-07-31T10:53:37;8.38;;;4.68;;
59788;SDS011;47353;51.614;5.530;2023-07-31T10:56:05;6.60;;;3.97;;
59788;SDS011;47353;51.614;5.530;2023-07-31T10:58:32;6.38;;;4.18;;
59788;SDS011;47353;51.614;5.530;2023-07-31T11:00:59;5.65;;;3.72;;
59788;SDS011;47353;51.614;5.530;2023-07-31T11:03:29;6.85;;;4.13;;
59788;SDS011;47353;51.614;5.530;2023-07-31T11:06:07;8.02;;;4.50;;
59788;SDS011;47353;51.614;5.530;2023-07-31T11:08:33;5.85;;;4.30;;
59788;SDS011;47353;51.614;5.530;2023-07-31T11:13:29;7.05;;;4.00;;
59788;SDS011;47353;51.614;5.530;2023-07-31T11:16:08;6.03;;;4.20;;
59788;SDS011;47353;51.614;5.530;2023-07-31T11:18:35;8.63;;;4.40;;
59788;SDS011;47353;51.614;5.530;2023-07-31T11:21:03;5.32;;;3.97;;
59788;SDS011;47353;51.614;5.530;2023-07-31T11:23:28;6.57;;;4.25;;
59788;SDS011;47353;51.614;5.530;2023-07-31T11:25:54;9.43;;;4.43;;
59788;SDS011;47353;51.614;5.530;2023-07-31T11:28:24;7.00;;;4.45;;
59788;SDS011;47353;51.614;5.530;2023-07-31T11:30:49;6.72;;;4.30;;
59788;SDS011;47353;51.614;5.530;2023-07-31T11:33:15;8.70;;;4.75;;
59788;SDS011;47353;51.614;5.530;2023-07-31T11:35:44;7.57;;;4.38;;
59788;SDS011;47353;51.614;5.530;2023-07-31T11:38:12;5.63;;;4.30;;
59788;SDS011;47353;51.614;5.530;2023-07-31T11:40:48;8.68;;;4.28;;
59788;SDS011;47353;51.614;5.530;2023-07-31T11:43:13;6.45;;;4.60;;
59788;SDS011;47353;51.614;5.530;2023-07-31T11:45:44;7.72;;;4.25;;
59788;SDS011;47353;51.614;5.530;2023-07-31T11:48:17;8.20;;;4.53;;
59788;SDS011;47353;51.614;5.530;2023-07-31T11:50:46;6.93;;;4.35;;
59788;SDS011;47353;51.614;5.530;2023-07-31T11:53:14;5.30;;;4.10;;
59788;SDS011;47353;51.614;5.530;2023-07-31T11:55:41;5.72;;;4.10;;
59788;SDS011;47353;51.614;5.530;2023-07-31T11:58:07;6.40;;;3.97;;
59788;SDS011;47353;51.614;5.530;2023-07-31T12:00:33;4.88;;;3.92;;
59788;SDS011;47353;51.614;5.530;2023-07-31T12:02:59;5.82;;;3.45;;
59788;SDS011;47353;51.614;5.530;2023-07-31T12:05:24;4.95;;;2.88;;
59788;SDS011;47353;51.614;5.530;2023-07-31T12:07:51;7.20;;;3.58;;
59788;SDS011;47353;51.614;5.530;2023-07-31T12:13:05;7.68;;;3.65;;
59788;SDS011;47353;51.614;5.530;2023-07-31T12:18:12;6.70;;;3.70;;
59788;SDS011;47353;51.614;5.530;2023-07-31T12:20:46;5.28;;;3.55;;
59788;SDS011;47353;51.614;5.530;2023-07-31T12:23:23;7.38;;;3.80;;
59788;SDS011;47353;51.614;5.530;2023-07-31T12:28:34;5.72;;;4.10;;
59788;SDS011;47353;51.614;5.530;2023-07-31T12:31:01;6.43;;;3.60;;
59788;SDS011;47353;51.614;5.530;2023-07-31T12:33:31;6.38;;;3.83;;
59788;SDS011;47353;51.614;5.530;2023-07-31T12:35:57;7.90;;;3.70;;
59788;SDS011;47353;51.614;5.530;2023-07-31T12:38:25;5.25;;;3.97;;
59788;SDS011;47353;51.614;5.530;2023-07-31T12:40:51;7.68;;;4.40;;
59788;SDS011;47353;51.614;5.530;2023-07-31T12:43:16;7.78;;;3.95;;
59788;SDS011;47353;51.614;5.530;2023-07-31T12:45:41;10.07;;;4.57;;
59788;SDS011;47353;51.614;5.530;2023-07-31T12:48:07;6.60;;;4.35;;
59788;SDS011;47353;51.614;5.530;2023-07-31T12:50:32;5.75;;;3.75;;
59788;SDS011;47353;51.614;5.530;2023-07-31T12:52:57;7.43;;;4.78;;
59788;SDS011;47353;51.614;5.530;2023-07-31T12:55:23;6.63;;;4.90;;
59788;SDS011;47353;51.614;5.530;2023-07-31T12:57:49;7.82;;;5.10;;
59788;SDS011;47353;51.614;5.530;2023-07-31T13:00:15;7.20;;;5.55;;
59788;SDS011;47353;51.614;5.530;2023-07-31T13:02:41;9.68;;;5.78;;
59788;SDS011;47353;51.614;5.530;2023-07-31T13:05:07;11.70;;;5.85;;
59788;SDS011;47353;51.614;5.530;2023-07-31T13:07:32;8.35;;;5.90;;
59788;SDS011;47353;51.614;5.530;2023-07-31T13:09:58;7.13;;;5.85;;
59788;SDS011;47353;51.614;5.530;2023-07-31T13:12:23;10.30;;;6.88;;
59788;SDS011;47353;51.614;5.530;2023-07-31T13:14:49;10.23;;;6.13;;
59788;SDS011;47353;51.614;5.530;2023-07-31T13:17:15;9.05;;;5.95;;
59788;SDS011;47353;51.614;5.530;2023-07-31T13:19:41;8.60;;;6.15;;
59788;SDS011;47353;51.614;5.530;2023-07-31T13:22:07;11.05;;;6.40;;
59788;SDS011;47353;51.614;5.530;2023-07-31T13:24:33;10.95;;;6.22;;
59788;SDS011;47353;51.614;5.530;2023-07-31T13:26:58;11.25;;;6.22;;
59788;SDS011;47353;51.614;5.530;2023-07-31T13:29:23;9.57;;;6.03;;
59788;SDS011;47353;51.614;5.530;2023-07-31T13:31:49;11.00;;;6.22;;
59788;SDS011;47353;51.614;5.530;2023-07-31T13:34:15;10.23;;;6.22;;
59788;SDS011;47353;51.614;5.530;2023-07-31T13:36:40;8.77;;;5.75;;
59788;SDS011;47353;51.614;5.530;2023-07-31T13:39:06;12.27;;;5.78;;
59788;SDS011;47353;51.614;5.530;2023-07-31T13:41:32;11.23;;;6.10;;
59788;SDS011;47353;51.614;5.530;2023-07-31T13:43:57;9.27;;;5.45;;
59788;SDS011;47353;51.614;5.530;2023-07-31T13:46:22;9.98;;;5.78;;
59788;SDS011;47353;51.614;5.530;2023-07-31T13:48:48;9.18;;;5.22;;
59788;SDS011;47353;51.614;5.530;2023-07-31T13:51:13;11.10;;;5.75;;
59788;SDS011;47353;51.614;5.530;2023-07-31T13:53:39;10.52;;;5.93;;
59788;SDS011;47353;51.614;5.530;2023-07-31T13:56:04;9.75;;;6.07;;
59788;SDS011;47353;51.614;5.530;2023-07-31T13:58:29;10.45;;;6.25;;
59788;SDS011;47353;51.614;5.530;2023-07-31T14:00:55;12.93;;;6.55;;
59788;SDS011;47353;51.614;5.530;2023-07-31T14:03:20;15.00;;;6.40;;
59788;SDS011;47353;51.614;5.530;2023-07-31T14:05:46;12.77;;;7.00;;
59788;SDS011;47353;51.614;5.530;2023-07-31T14:08:11;10.98;;;6.70;;
59788;SDS011;47353;51.614;5.530;2023-07-31T14:10:36;11.48;;;6.85;;
59788;SDS011;47353;51.614;5.530;2023-07-31T14:13:02;9.05;;;6.35;;
59788;SDS011;47353;51.614;5.530;2023-07-31T14:15:27;12.68;;;6.55;;
59788;SDS011;47353;51.614;5.530;2023-07-31T14:17:53;12.13;;;6.65;;
59788;SDS011;47353;51.614;5.530;2023-07-31T14:20:19;10.98;;;6.55;;
59788;SDS011;47353;51.614;5.530;2023-07-31T14:22:44;14.18;;;7.30;;
59788;SDS011;47353;51.614;5.530;2023-07-31T14:25:09;13.93;;;7.30;;
59788;SDS011;47353;51.614;5.530;2023-07-31T14:27:35;11.82;;;7.50;;
59788;SDS011;47353;51.614;5.530;2023-07-31T14:30:01;14.50;;;7.45;;
59788;SDS011;47353;51.614;5.530;2023-07-31T14:32:27;10.95;;;6.70;;
59788;SDS011;47353;51.614;5.530;2023-07-31T14:34:53;14.90;;;7.30;;
59788;SDS011;47353;51.614;5.530;2023-07-31T14:37:19;11.57;;;7.50;;
59788;SDS011;47353;51.614;5.530;2023-07-31T14:39:45;11.40;;;6.88;;
59788;SDS011;47353;51.614;5.530;2023-07-31T14:42:10;11.45;;;6.78;;
59788;SDS011;47353;51.614;5.530;2023-07-31T14:44:35;13.05;;;6.35;;
59788;SDS011;47353;51.614;5.530;2023-07-31T14:47:01;12.90;;;6.35;;
59788;SDS011;47353;51.614;5.530;2023-07-31T14:49:26;11.25;;;6.30;;
59788;SDS011;47353;51.614;5.530;2023-07-31T14:51:54;11.63;;;5.85;;
59788;SDS011;47353;51.614;5.530;2023-07-31T14:54:20;12.23;;;6.32;;
59788;SDS011;47353;51.614;5.530;2023-07-31T14:56:45;12.27;;;5.95;;
59788;SDS011;47353;51.614;5.530;2023-07-31T14:59:11;11.65;;;6.25;;
59788;SDS011;47353;51.614;5.530;2023-07-31T15:01:37;9.20;;;5.03;;
59788;SDS011;47353;51.614;5.530;2023-07-31T15:04:02;9.35;;;5.97;;
59788;SDS011;47353;51.614;5.530;2023-07-31T15:06:28;10.15;;;5.00;;
59788;SDS011;47353;51.614;5.530;2023-07-31T15:08:53;9.07;;;4.88;;
59788;SDS011;47353;51.614;5.530;2023-07-31T15:11:19;9.95;;;4.20;;
59788;SDS011;47353;51.614;5.530;2023-07-31T15:13:44;6.60;;;3.65;;
59788;SDS011;47353;51.614;5.530;2023-07-31T15:16:10;6.90;;;3.70;;
59788;SDS011;47353;51.614;5.530;2023-07-31T15:18:35;5.88;;;3.40;;
59788;SDS011;47353;51.614;5.530;2023-07-31T15:21:01;8.02;;;3.72;;
59788;SDS011;47353;51.614;5.530;2023-07-31T15:23:26;6.85;;;3.65;;
59788;SDS011;47353;51.614;5.530;2023-07-31T15:25:51;7.47;;;3.67;;
59788;SDS011;47353;51.614;5.530;2023-07-31T15:28:18;6.15;;;3.40;;
59788;SDS011;47353;51.614;5.530;2023-07-31T15:30:43;5.22;;;3.28;;
59788;SDS011;47353;51.614;5.530;2023-07-31T15:33:09;6.88;;;3.28;;
59788;SDS011;47353;51.614;5.530;2023-07-31T15:35:35;5.95;;;3.20;;
59788;SDS011;47353;51.614;5.530;2023-07-31T15:38:00;6.35;;;3.42;;
59788;SDS011;47353;51.614;5.530;2023-07-31T15:40:26;6.97;;;3.30;;
59788;SDS011;47353;51.614;5.530;2023-07-31T15:42:51;5.30;;;3.00;;
59788;SDS011;47353;51.614;5.530;2023-07-31T15:45:17;5.45;;;3.10;;
59788;SDS011;47353;51.614;5.530;2023-07-31T15:47:42;6.10;;;3.35;;
59788;SDS011;47353;51.614;5.530;2023-07-31T15:50:07;6.75;;;3.30;;
59788;SDS011;47353;51.614;5.530;2023-07-31T15:52:33;7.07;;;3.22;;
59788;SDS011;47353;51.614;5.530;2023-07-31T15:54:59;5.65;;;3.13;;
59788;SDS011;47353;51.614;5.530;2023-07-31T15:57:24;5.57;;;2.85;;
59788;SDS011;47353;51.614;5.530;2023-07-31T15:59:49;4.65;;;2.63;;
59788;SDS011;47353;51.614;5.530;2023-07-31T16:02:15;6.00;;;2.70;;
59788;SDS011;47353;51.614;5.530;2023-07-31T16:04:40;6.88;;;3.03;;
59788;SDS011;47353;51.614;5.530;2023-07-31T16:07:06;4.13;;;2.50;;
59788;SDS011;47353;51.614;5.530;2023-07-31T16:09:31;4.88;;;2.60;;
59788;SDS011;47353;51.614;5.530;2023-07-31T16:11:57;6.30;;;2.90;;
59788;SDS011;47353;51.614;5.530;2023-07-31T16:14:22;4.50;;;2.42;;
59788;SDS011;47353;51.614;5.530;2023-07-31T16:16:47;5.15;;;2.45;;
59788;SDS011;47353;51.614;5.530;2023-07-31T16:19:13;4.60;;;2.20;;
59788;SDS011;47353;51.614;5.530;2023-07-31T16:21:39;3.83;;;2.17;;
59788;SDS011;47353;51.614;5.530;2023-07-31T16:24:04;5.30;;;2.28;;
59788;SDS011;47353;51.614;5.530;2023-07-31T16:26:30;2.60;;;2.00;;
59788;SDS011;47353;51.614;5.530;2023-07-31T16:28:56;3.20;;;1.80;;
59788;SDS011;47353;51.614;5.530;2023-07-31T16:31:21;4.50;;;1.60;;
59788;SDS011;47353;51.614;5.530;2023-07-31T16:33:46;2.00;;;1.50;;
59788;SDS011;47353;51.614;5.530;2023-07-31T16:36:12;2.38;;;1.70;;
59788;SDS011;47353;51.614;5.530;2023-07-31T16:38:38;1.73;;;1.50;;
59788;SDS011;47353;51.614;5.530;2023-07-31T16:41:04;3.50;;;1.40;;
59788;SDS011;47353;51.614;5.530;2023-07-31T16:43:30;3.03;;;1.70;;
59788;SDS011;47353;51.614;5.530;2023-07-31T16:45:56;3.38;;;1.20;;
59788;SDS011;47353;51.614;5.530;2023-07-31T16:48:21;2.75;;;1.60;;
59788;SDS011;47353;51.614;5.530;2023-07-31T16:50:47;6.40;;;1.60;;
59788;SDS011;47353;51.614;5.530;2023-07-31T16:53:12;2.95;;;1.63;;
59788;SDS011;47353;51.614;5.530;2023-07-31T16:55:37;2.95;;;2.10;;
59788;SDS011;47353;51.614;5.530;2023-07-31T16:58:03;2.67;;;1.90;;
59788;SDS011;47353;51.614;5.530;2023-07-31T17:00:28;4.32;;;1.65;;
59788;SDS011;47353;51.614;5.530;2023-07-31T17:02:54;4.82;;;1.75;;
59788;SDS011;47353;51.614;5.530;2023-07-31T17:05:20;1.80;;;1.50;;
59788;SDS011;47353;51.614;5.530;2023-07-31T17:07:45;1.42;;;1.27;;
59788;SDS011;47353;51.614;5.530;2023-07-31T17:10:11;3.03;;;1.75;;
59788;SDS011;47353;51.614;5.530;2023-07-31T17:12:36;3.20;;;1.50;;
59788;SDS011;47353;51.614;5.530;2023-07-31T17:15:02;1.48;;;1.30;;
59788;SDS011;47353;51.614;5.530;2023-07-31T17:17:29;2.38;;;1.52;;
59788;SDS011;47353;51.614;5.530;2023-07-31T17:19:54;3.55;;;1.70;;
59788;SDS011;47353;51.614;5.530;2023-07-31T17:22:19;1.85;;;1.33;;
59788;SDS011;47353;51.614;5.530;2023-07-31T17:24:45;2.03;;;1.30;;
59788;SDS011;47353;51.614;5.530;2023-07-31T17:27:10;3.00;;;1.30;;
59788;SDS011;47353;51.614;5.530;2023-07-31T17:29:36;2.70;;;1.58;;
59788;SDS011;47353;51.614;5.530;2023-07-31T17:32:01;1.85;;;1.30;;
59788;SDS011;47353;51.614;5.530;2023-07-31T17:34:27;2.90;;;1.27;;
59788;SDS011;47353;51.614;5.530;2023-07-31T17:36:52;1.67;;;1.33;;
59788;SDS011;47353;51.614;5.530;2023-07-31T17:39:18;2.17;;;1.30;;
59788;SDS011;47353;51.614;5.530;2023-07-31T17:41:43;2.55;;;1.20;;
59788;SDS011;47353;51.614;5.530;2023-07-31T17:44:09;2.05;;;1.20;;
59788;SDS011;47353;51.614;5.530;2023-07-31T17:46:34;1.83;;;1.20;;
59788;SDS011;47353;51.614;5.530;2023-07-31T17:49:00;1.90;;;1.27;;
59788;SDS011;47353;51.614;5.530;2023-07-31T17:51:25;2.40;;;1.60;;
59788;SDS011;47353;51.614;5.530;2023-07-31T17:53:51;2.42;;;1.10;;
59788;SDS011;47353;51.614;5.530;2023-07-31T17:56:16;2.00;;;1.20;;
59788;SDS011;47353;51.614;5.530;2023-07-31T17:58:42;10.73;;;6.05;;
59788;SDS011;47353;51.614;5.530;2023-07-31T18:01:07;2.13;;;1.13;;
59788;SDS011;47353;51.614;5.530;2023-07-31T18:03:33;3.33;;;1.20;;
59788;SDS011;47353;51.614;5.530;2023-07-31T18:05:58;2.92;;;1.50;;
59788;SDS011;47353;51.614;5.530;2023-07-31T18:08:23;2.20;;;1.30;;
59788;SDS011;47353;51.614;5.530;2023-07-31T18:10:49;1.83;;;1.23;;
59788;SDS011;47353;51.614;5.530;2023-07-31T18:13:15;3.40;;;1.20;;
59788;SDS011;47353;51.614;5.530;2023-07-31T18:15:44;1.42;;;1.05;;
59788;SDS011;47353;51.614;5.530;2023-07-31T18:18:10;2.65;;;1.23;;
59788;SDS011;47353;51.614;5.530;2023-07-31T18:20:36;2.05;;;1.27;;
59788;SDS011;47353;51.614;5.530;2023-07-31T18:23:01;1.58;;;1.17;;
59788;SDS011;47353;51.614;5.530;2023-07-31T18:25:27;3.42;;;1.27;;
59788;SDS011;47353;51.614;5.530;2023-07-31T18:27:52;2.58;;;1.08;;
59788;SDS011;47353;51.614;5.530;2023-07-31T18:30:18;1.27;;;1.02;;
59788;SDS011;47353;51.614;5.530;2023-07-31T18:32:43;2.75;;;1.00;;
59788;SDS011;47353;51.614;5.530;2023-07-31T18:35:09;1.30;;;0.90;;
59788;SDS011;47353;51.614;5.530;2023-07-31T18:37:35;1.08;;;0.77;;
59788;SDS011;47353;51.614;5.530;2023-07-31T18:40:00;0.60;;;0.60;;
59788;SDS011;47353;51.614;5.530;2023-07-31T18:42:25;0.63;;;0.60;;
59788;SDS011;47353;51.614;5.530;2023-07-31T18:44:51;0.85;;;0.60;;
59788;SDS011;47353;51.614;5.530;2023-07-31T18:47:16;1.13;;;0.68;;
59788;SDS011;47353;51.614;5.530;2023-07-31T18:49:42;0.77;;;0.75;;
59788;SDS011;47353;51.614;5.530;2023-07-31T18:52:07;2.58;;;1.40;;
59788;SDS011;47353;51.614;5.530;2023-07-31T18:54:32;10.05;;;3.78;;
59788;SDS011;47353;51.614;5.530;2023-07-31T18:56:58;6.68;;;3.30;;
59788;SDS011;47353;51.614;5.530;2023-07-31T18:59:23;6.85;;;4.00;;
59788;SDS011;47353;51.614;5.530;2023-07-31T19:01:49;2.13;;;1.30;;
59788;SDS011;47353;51.614;5.530;2023-07-31T19:04:14;2.88;;;2.00;;
59788;SDS011;47353;51.614;5.530;2023-07-31T19:06:40;6.35;;;2.30;;
59788;SDS011;47353;51.614;5.530;2023-07-31T19:09:06;4.75;;;2.45;;
59788;SDS011;47353;51.614;5.530;2023-07-31T19:11:35;4.38;;;2.40;;
59788;SDS011;47353;51.614;5.530;2023-07-31T19:14:00;4.32;;;2.00;;
59788;SDS011;47353;51.614;5.530;2023-07-31T19:16:26;3.97;;;1.88;;
59788;SDS011;47353;51.614;5.530;2023-07-31T19:18:52;3.13;;;1.70;;
59788;SDS011;47353;51.614;5.530;2023-07-31T19:21:17;2.00;;;1.80;;
59788;SDS011;47353;51.614;5.530;2023-07-31T19:23:43;2.50;;;1.60;;
59788;SDS011;47353;51.614;5.530;2023-07-31T19:26:08;2.30;;;1.70;;
59788;SDS011;47353;51.614;5.530;2023-07-31T19:28:35;2.08;;;1.50;;
59788;SDS011;47353;51.614;5.530;2023-07-31T19:31:00;2.60;;;1.60;;
59788;SDS011;47353;51.614;5.530;2023-07-31T19:33:25;4.30;;;1.88;;
59788;SDS011;47353;51.614;5.530;2023-07-31T19:35:55;3.35;;;2.05;;
59788;SDS011;47353;51.614;5.530;2023-07-31T19:40:50;1.88;;;1.73;;
59788;SDS011;47353;51.614;5.530;2023-07-31T19:43:15;2.58;;;1.67;;
59788;SDS011;47353;51.614;5.530;2023-07-31T19:45:41;2.55;;;1.80;;
59788;SDS011;47353;51.614;5.530;2023-07-31T19:48:07;3.25;;;1.85;;
59788;SDS011;47353;51.614;5.530;2023-07-31T19:50:33;3.08;;;1.85;;
59788;SDS011;47353;51.614;5.530;2023-07-31T19:52:58;3.40;;;1.83;;
59788;SDS011;47353;51.614;5.530;2023-07-31T19:55:24;1.52;;;1.42;;
59788;SDS011;47353;51.614;5.530;2023-07-31T19:57:49;3.63;;;1.70;;
59788;SDS011;47353;51.614;5.530;2023-07-31T20:00:14;2.72;;;1.73;;
59788;SDS011;47353;51.614;5.530;2023-07-31T20:02:40;4.35;;;1.77;;
59788;SDS011;47353;51.614;5.530;2023-07-31T20:05:05;3.55;;;1.70;;
59788;SDS011;47353;51.614;5.530;2023-07-31T20:07:31;3.38;;;2.05;;
59788;SDS011;47353;51.614;5.530;2023-07-31T20:09:57;2.72;;;2.10;;
59788;SDS011;47353;51.614;5.530;2023-07-31T20:12:24;2.33;;;2.13;;
59788;SDS011;47353;51.614;5.530;2023-07-31T20:14:51;2.63;;;2.15;;